Terminal Aerodrome Forecast
Issued by NWS Twin Cities, MN

Home | Current Version | Previous Version | Text Only | Print | Product List | Glossary On
Versions: 1 2 3 4 5 6 7 8 9 10 11 12 13 14 15 16 17 18 19 20
000
FTUS43 KMPX 010500
TAFEAU
TAF
KEAU 010520Z 0106/0206 23004KT P6SM VCSH BKN060
     FM010700 VRB03KT P6SM SCT060
      TEMPO 0110/0113 3SM BR
     FM011600 29005KT P6SM SCT050
     FM011900 31005KT P6SM VCSH SCT050 BKN080
      TEMPO 0120/0124 5SM -TSRA SCT020 BKN050CB
     FM020200 VRB03KT P6SM SCT050=

USA.gov is the U.S. government's official web portal to all federal, state and local government web resources and services.